Time;durP1;ratioP1;P1;durP2;ratioP2;P2;SDS_P1;SDS_P2;PMS_P1;PMS_P2;Temp;Humidity;BMP_temperature;BMP_pressure;BME280_temperature;BME280_humidity;BME280_pressure;Samples;Min_cycle;Max_cycle;Signal;HPM_P1;HPM_P2
2023/07/13 02:08:15;;;;;;;;;;;;;;;;;;;;;
2023/07/13 02:21:10;;;;;;;16.27;11.47;;;18.70;99.90;;;;;;3765577;28;20245;-78
2023/07/13 02:33:25;;;;;;;;;;;;;;;;;;;;;
2023/07/13 02:37:24;;;;;;;15.20;11.10;;;18.50;99.90;;;;;;4907898;24;20251;-78
2023/07/13 04:02:06;;;;;;;;;;;;;;;;;;;;;
2023/07/13 04:58:33;;;;;;;16.90;11.60;;;21.70;99.90;;;;;;6275686;22;20280;-79
2023/07/13 08:39:17;;;;;;;5.72;4.65;;;28.20;99.90;;;;;;6286094;22;20208;-83
2023/07/13 08:43:29;;;;;;;8.45;5.03;;;28.90;99.90;;;;;;6291467;22;20204;-81
2023/07/13 13:52:28;;;;;;;20.43;13.67;;;20.70;99.90;;;;;;6179530;23;20217;-89
2023/07/13 13:59:27;;;;;;;18.20;13.53;;;20.70;99.90;;;;;;6071033;23;20182;-88
2023/07/13 14:02:11;;;;;;;16.90;13.20;;;20.70;99.90;;;;;;6049520;23;20190;-86
2023/07/13 14:04:40;;;;;;;19.07;13.90;;;20.70;99.90;;;;;;6047931;23;20451;-87
2023/07/13 14:07:07;;;;;;;19.13;13.37;;;20.60;99.90;;;;;;6047096;23;20496;-87
2023/07/13 14:09:35;;;;;;;21.47;13.70;;;20.60;99.90;;;;;;6047266;23;20218;-89
2023/07/13 14:12:02;;;;;;;16.97;12.17;;;20.40;99.90;;;;;;6023782;23;20190;-88
2023/07/13 14:14:29;;;;;;;15.33;11.97;;;20.50;99.90;;;;;;6071512;23;20195;-88
2023/07/13 14:16:57;;;;;;;19.83;12.63;;;20.50;99.90;;;;;;6047548;23;20245;-87
2023/07/13 14:19:25;;;;;;;15.30;11.63;;;20.50;99.90;;;;;;6047473;23;20177;-87
2023/07/13 14:21:53;;;;;;;14.30;10.00;;;20.60;99.90;;;;;;6023443;23;20222;-87
2023/07/13 14:24:21;;;;;;;12.43;9.27;;;20.60;99.90;;;;;;6047569;23;20174;-88
2023/07/13 14:26:48;;;;;;;12.87;9.53;;;20.60;99.90;;;;;;6099307;23;20268;-87
2023/07/13 14:29:18;;;;;;;12.20;9.87;;;20.60;99.90;;;;;;6218381;23;20202;-86
2023/07/13 14:31:50;;;;;;;12.53;8.67;;;20.60;99.90;;;;;;6169712;23;20599;-85
2023/07/13 14:34:17;;;;;;;8.97;7.50;;;20.60;99.90;;;;;;6218272;23;20277;-85
2023/07/13 14:36:49;;;;;;;10.63;7.60;;;20.60;99.90;;;;;;6254854;22;20185;-85
2023/07/13 14:39:24;;;;;;;9.83;7.30;;;20.50;99.90;;;;;;6255804;22;20408;-86
2023/07/13 14:41:54;;;;;;;14.07;7.60;;;20.50;99.90;;;;;;6230682;22;20189;-86
2023/07/13 14:44:28;;;;;;;11.57;8.00;;;20.50;99.90;;;;;;6230956;22;20170;-85
2023/07/13 14:47:01;;;;;;;13.30;8.20;;;20.60;99.90;;;;;;6282477;22;20264;-87
2023/07/13 19:13:25;;;;;;;13.27;9.70;;;19.20;99.90;;;;;;6267997;22;20212;31
2023/07/13 19:16:20;;;;;;;11.07;9.10;;;19.10;99.90;;;;;;6233619;22;20195;-85
2023/07/13 19:19:44;;;;;;;13.03;9.23;;;19.00;99.90;;;;;;6170492;23;20214;-86
2023/07/13 19:27:48;;;;;;;14.30;9.37;;;19.00;99.90;;;;;;6011498;23;20183;-85
2023/07/13 19:31:49;;;;;;;13.63;9.70;;;19.00;99.90;;;;;;5966235;23;20256;-84
2023/07/13 19:38:19;;;;;;;12.70;9.30;;;18.90;99.90;;;;;;6237610;22;20205;-81
2023/07/13 19:41:00;;;;;;;13.17;9.57;;;18.80;99.90;;;;;;6081343;23;20184;-83
2023/07/13 19:43:49;;;;;;;13.37;8.90;;;18.70;99.90;;;;;;6108224;23;20167;-84
2023/07/13 19:46:34;;;;;;;12.07;8.73;;;18.70;99.90;;;;;;6114800;22;20194;-81
2023/07/13 19:49:24;;;;;;;13.80;9.60;;;18.70;99.90;;;;;;6279219;22;20165;-81
2023/07/13 19:51:52;;;;;;;13.70;9.40;;;18.60;99.90;;;;;;6243374;22;20189;-81
2023/07/13 19:54:26;;;;;;;11.90;9.00;;;18.60;99.90;;;;;;6283739;22;20585;-84
2023/07/13 19:57:19;;;;;;;11.23;8.87;;;18.60;99.90;;;;;;6259389;22;20185;-85
2023/07/13 20:00:10;;;;;;;14.83;9.63;;;18.60;99.90;;;;;;6310752;22;20228;-86
2023/07/13 20:02:54;;;;;;;12.30;9.17;;;18.60;99.90;;;;;;6266343;22;20205;-83
2023/07/13 20:05:41;;;;;;;13.20;8.97;;;18.50;99.90;;;;;;6275588;22;21043;-86
2023/07/13 20:14:26;;;;;;;14.50;9.13;;;18.50;99.90;;;;;;6297105;22;20227;-84
2023/07/13 20:28:31;;;;;;;10.37;8.07;;;18.40;99.90;;;;;;6233392;22;20181;-84
2023/07/13 20:31:53;;;;;;;9.70;7.40;;;18.40;99.90;;;;;;6293443;22;20196;-83
2023/07/13 20:34:40;;;;;;;12.90;7.10;;;18.30;99.90;;;;;;6271535;22;20522;-83
2023/07/13 20:40:02;;;;;;;9.13;7.33;;;18.30;99.90;;;;;;6245930;22;20181;-84
2023/07/13 20:46:52;;;;;;;10.00;6.73;;;18.20;99.90;;;;;;6215677;22;20204;-84
2023/07/13 21:00:40;;;;;;;8.63;6.97;;;18.20;99.90;;;;;;6309673;22;20216;-81
2023/07/13 21:03:37;;;;;;;9.57;6.73;;;18.10;99.90;;;;;;6146755;23;20235;-81
2023/07/13 21:09:49;;;;;;;10.47;7.33;;;18.10;99.90;;;;;;6310186;22;20209;-82
2023/07/13 21:13:07;;;;;;;11.60;7.80;;;18.00;99.90;;;;;;6280005;22;20267;-83
2023/07/13 21:16:27;;;;;;;9.60;7.37;;;18.10;99.90;;;;;;6312933;22;20509;-83
2023/07/13 21:19:13;;;;;;;9.30;7.50;;;18.00;99.90;;;;;;6317783;22;20530;-82
2023/07/13 21:21:47;;;;;;;12.77;8.30;;;18.00;99.90;;;;;;6316017;22;20214;-81
2023/07/13 21:24:17;;;;;;;10.90;7.73;;;18.10;99.90;;;;;;6290803;22;20241;-82
2023/07/13 21:26:50;;;;;;;12.47;7.80;;;18.00;99.90;;;;;;6290721;22;20200;-81
2023/07/13 21:30:49;;;;;;;14.50;8.20;;;18.00;99.90;;;;;;6181956;23;20179;-81
2023/07/13 21:33:28;;;;;;;11.53;8.87;;;18.10;99.90;;;;;;6187786;23;20159;-81
2023/07/13 21:36:13;;;;;;;;;;;;;;;;;;;;;
2023/07/13 21:39:15;;;;;;;10.13;8.43;;;18.00;99.90;;;;;;6161426;23;20171;-82
2023/07/13 21:42:11;;;;;;;12.87;9.67;;;18.00;99.90;;;;;;6161488;23;20214;-83
2023/07/13 21:44:56;;;;;;;9.93;8.63;;;18.00;99.90;;;;;;6162546;23;20164;-82
2023/07/13 21:48:00;;;;;;;12.27;9.60;;;18.00;99.90;;;;;;6112234;23;20247;-80
2023/07/13 21:51:03;;;;;;;14.60;9.60;;;17.90;99.90;;;;;;6103724;23;20227;-83
2023/07/13 21:54:30;;;;;;;11.53;9.10;;;17.90;99.90;;;;;;6011672;23;20484;-82
2023/07/13 21:57:15;;;;;;;12.37;8.70;;;18.00;99.90;;;;;;6200290;22;20589;-81
2023/07/13 21:59:48;;;;;;;11.87;9.43;;;18.00;99.90;;;;;;6347063;22;20171;-82
2023/07/13 22:03:19;;;;;;;13.67;9.60;;;17.90;99.90;;;;;;6327366;22;20163;-80
2023/07/13 22:09:04;;;;;;;;;;;;;;;;;;;;;
2023/07/13 22:16:29;;;;;;;12.07;9.47;;;17.80;99.90;;;;;;6128557;23;20282;-84
2023/07/13 22:19:20;;;;;;;15.07;10.07;;;17.90;99.90;;;;;;6081111;23;20180;-83
2023/07/13 22:21:52;;;;;;;15.27;10.60;;;17.80;99.90;;;;;;6102569;23;20611;-83
2023/07/13 22:28:35;;;;;;;15.63;10.37;;;17.90;99.90;;;;;;6246409;23;20190;-83
2023/07/13 22:31:09;;;;;;;16.73;11.87;;;17.90;99.90;;;;;;6103461;23;20189;-83
2023/07/13 22:39:43;;;;;;;19.63;11.33;;;17.90;99.90;;;;;;6095182;23;20244;-84
2023/07/13 22:45:46;;;;;;;14.77;10.90;;;17.90;99.90;;;;;;6277672;22;20446;-84
2023/07/13 22:52:35;;;;;;;17.77;12.30;;;17.90;99.90;;;;;;6278726;22;20209;-83
2023/07/13 23:12:34;;;;;;;15.00;12.03;;;17.90;99.90;;;;;;6253770;22;20218;-83
2023/07/13 23:16:31;;;;;;;21.43;12.47;;;17.90;99.90;;;;;;6247594;23;20228;-83
